Little Caillou, Louisiana
Current Conditions -  °F | °C
As of 3:47 PM on Sunday 21 Dec 2014 (Local Time) from KHUM Reporting Station
Broken Clouds Broken Clouds  
Wind Chill: 57°   Ceiling: 1300
Heat Index: 57°   Visibility: 7mi
Dew Point: 54°   Wind: 5mph
Humidity: 88%   Direction: 40°NE
Pressure: 30.01"   Gusts: NA
Location:  29.4719°N, 90.6177°W
Report Text: KHUM 212147Z 04004KT 7SM BKN013 14/12 A3001 RMK RY12/30 CLSD ATIS T GPS RY36 MS
Loading
Personal Weather Stations






























Interactive Weather Map New forecast layout! Learn more

10-Day Weather Forecast

Advertisements
Track Severe Weather on mobile